createdAt,value
2019-04-21T00:03:40.700Z,9.20
2019-04-21T00:06:31.490Z,9.10
2019-04-21T00:08:56.512Z,8.90
2019-04-21T00:11:29.370Z,8.90
2019-04-21T00:13:52.750Z,8.80
2019-04-21T00:16:12.021Z,8.80
2019-04-21T00:19:01.126Z,8.90
2019-04-21T00:21:30.852Z,8.80
2019-04-21T00:24:23.962Z,8.80
2019-04-21T00:27:03.897Z,8.80
2019-04-21T00:29:36.705Z,8.70
2019-04-21T00:31:58.866Z,8.70
2019-04-21T00:34:15.324Z,8.70
2019-04-21T00:36:56.051Z,8.80
2019-04-21T00:39:43.545Z,8.70
2019-04-21T00:42:08.416Z,8.70
2019-04-21T00:44:27.481Z,8.70
2019-04-21T00:49:57.835Z,8.60
2019-04-21T00:52:53.907Z,8.50
2019-04-21T00:55:44.491Z,8.40
2019-04-21T00:58:33.880Z,8.50
2019-04-21T01:01:01.574Z,8.40
2019-04-21T01:03:36.191Z,8.40
2019-04-21T01:06:03.657Z,8.30
2019-04-21T01:08:31.214Z,8.30
2019-04-21T01:10:52.783Z,8.40
2019-04-21T01:13:41.277Z,8.40
2019-04-21T01:16:07.142Z,8.40
2019-04-21T01:18:33.130Z,8.30
2019-04-21T01:20:43.144Z,8.40
2019-04-21T01:23:12.706Z,8.50
2019-04-21T01:25:50.444Z,8.30
2019-04-21T01:28:32.821Z,8.30
2019-04-21T01:31:05.731Z,8.20
2019-04-21T01:36:01.930Z,8.10
2019-04-21T01:38:34.224Z,8.00
2019-04-21T01:41:08.384Z,7.90
2019-04-21T01:43:33.326Z,7.80
2019-04-21T01:46:00.893Z,7.80
2019-04-21T01:48:31.879Z,7.80
2019-04-21T01:51:00.711Z,7.70
2019-04-21T01:53:36.659Z,7.80
2019-04-21T01:56:16.955Z,7.70
2019-04-21T01:58:40.498Z,7.70
2019-04-21T02:01:21.662Z,7.70
2019-04-21T02:03:54.487Z,7.70
2019-04-21T02:06:24.179Z,7.70
2019-04-21T02:08:49.041Z,7.80
2019-04-21T02:11:23.169Z,7.80
2019-04-21T02:13:58.865Z,7.80
2019-04-21T02:16:18.573Z,7.70
2019-04-21T02:18:50.988Z,7.70
2019-04-21T02:21:15.358Z,7.60
2019-04-21T02:24:01.835Z,7.50
2019-04-21T02:26:28.464Z,7.50
2019-04-21T02:29:00.058Z,7.60
2019-04-21T02:34:04.587Z,7.40
2019-04-21T02:37:05.333Z,7.40
2019-04-21T02:39:16.439Z,7.30
2019-04-21T02:41:51.090Z,7.30
2019-04-21T02:44:21.734Z,7.20
2019-04-21T02:46:47.546Z,7.20
2019-04-21T02:49:32.684Z,7.20
2019-04-21T02:51:47.446Z,7.20
2019-04-21T02:54:40.973Z,7.20
2019-04-21T02:56:51.459Z,7.10
2019-04-21T02:59:29.087Z,7.20
2019-04-21T03:01:56.672Z,7.20
2019-04-21T03:14:56.007Z,6.90
2019-04-21T03:17:22.386Z,6.80
2019-04-21T03:22:20.061Z,6.80
2019-04-21T03:25:20.493Z,6.80
2019-04-21T03:29:54.769Z,6.70
2019-04-21T03:35:15.276Z,6.70
2019-04-21T03:37:26.953Z,6.70
2019-04-21T03:39:50.774Z,6.70
2019-04-21T03:42:25.607Z,6.70
2019-04-21T03:44:54.243Z,6.70
2019-04-21T03:47:24.891Z,6.60
2019-04-21T03:49:56.400Z,6.70
2019-04-21T03:52:30.248Z,6.70
2019-04-21T03:55:47.842Z,6.60
2019-04-21T03:58:13.097Z,6.70
2019-04-21T04:00:34.694Z,6.60
2019-04-21T04:03:10.597Z,6.50
2019-04-21T04:05:55.775Z,6.60
2019-04-21T04:08:39.619Z,6.50
2019-04-21T04:11:08.312Z,6.50
2019-04-21T04:13:32.807Z,6.50
2019-04-21T04:16:05.917Z,6.50
2019-04-21T04:21:15.018Z,6.60
2019-04-21T04:23:43.329Z,6.60
2019-04-21T04:26:09.203Z,6.60
2019-04-21T04:31:20.416Z,6.60
2019-04-21T04:33:48.305Z,6.50
2019-04-21T04:36:21.987Z,6.40
2019-04-21T04:38:51.999Z,6.40
2019-04-21T04:41:16.255Z,6.30
2019-04-21T04:43:50.648Z,6.30
2019-04-21T04:46:22.436Z,6.30
2019-04-21T04:48:47.550Z,6.30
2019-04-21T04:51:12.228Z,6.40
2019-04-21T04:53:43.909Z,6.30
2019-04-21T04:56:10.815Z,6.30
2019-04-21T05:01:21.533Z,6.30
2019-04-21T05:04:05.850Z,6.20
2019-04-21T05:11:40.196Z,6.20
2019-04-21T05:14:03.045Z,6.30
2019-04-21T05:21:37.555Z,6.50
2019-04-21T05:23:48.439Z,6.40
2019-04-21T05:26:09.813Z,6.40
2019-04-21T05:28:40.895Z,6.40
2019-04-21T05:31:25.086Z,6.50
2019-04-21T05:34:03.073Z,6.60
2019-04-21T05:36:59.555Z,6.60
2019-04-21T05:39:27.041Z,6.80
2019-04-21T05:41:48.867Z,6.90
2019-04-21T05:44:35.406Z,7.00
2019-04-21T05:49:35.350Z,7.00
2019-04-21T05:52:04.051Z,7.10
2019-04-21T05:57:05.931Z,7.30
2019-04-21T05:59:40.036Z,7.40
2019-04-21T06:02:20.924Z,7.50
2019-04-21T06:05:02.347Z,7.50
2019-04-21T06:07:13.947Z,7.60
2019-04-21T06:09:48.794Z,7.90
2019-04-21T06:12:10.304Z,8.20
2019-04-21T06:14:44.929Z,8.20
2019-04-21T06:17:19.727Z,8.30
2019-04-21T06:19:45.072Z,8.40
2019-04-21T06:22:07.710Z,8.60
2019-04-21T06:24:54.610Z,8.80
2019-04-21T06:27:16.330Z,8.90
2019-04-21T06:29:43.711Z,9.10
2019-04-21T06:32:38.419Z,9.20
2019-04-21T06:34:59.075Z,9.30
2019-04-21T06:37:34.755Z,9.40
2019-04-21T06:42:16.412Z,9.60
2019-04-21T06:44:54.660Z,9.80
2019-04-21T06:47:24.656Z,9.90
2019-04-21T06:49:45.659Z,9.90
2019-04-21T06:52:30.522Z,10.00
2019-04-21T06:54:49.459Z,10.10
2019-04-21T06:57:18.200Z,10.20
2019-04-21T06:59:43.411Z,10.30
2019-04-21T07:02:30.639Z,10.40
2019-04-21T07:04:51.712Z,10.60
2019-04-21T07:07:18.149Z,10.70
2019-04-21T07:09:52.829Z,10.80
2019-04-21T07:12:14.203Z,10.90
2019-04-21T07:14:50.034Z,11.00
2019-04-21T07:17:17.917Z,11.00
2019-04-21T07:19:49.987Z,11.20
2019-04-21T07:22:22.936Z,11.30
2019-04-21T07:24:49.256Z,11.30
2019-04-21T07:27:16.275Z,11.50
2019-04-21T07:29:54.956Z,11.60
2019-04-21T07:32:19.222Z,11.80
2019-04-21T07:35:00.655Z,11.90
2019-04-21T07:37:17.323Z,12.00
2019-04-21T07:39:45.081Z,12.10
2019-04-21T07:42:13.279Z,12.20
2019-04-21T07:44:44.735Z,12.50
2019-04-21T07:47:20.456Z,12.40
2019-04-21T07:49:57.371Z,12.80
2019-04-21T07:57:31.612Z,13.00
2019-04-21T08:00:15.030Z,13.30
2019-04-21T08:02:38.510Z,13.40
2019-04-21T08:08:08.115Z,13.90
2019-04-21T08:10:40.824Z,13.70
2019-04-21T08:13:14.835Z,13.80
2019-04-21T08:15:39.731Z,14.00
2019-04-21T08:18:11.787Z,14.00
2019-04-21T08:20:34.866Z,14.10
2019-04-21T08:23:13.246Z,14.40
2019-04-21T08:25:46.103Z,14.20
2019-04-21T08:28:09.104Z,14.20
2019-04-21T08:30:43.218Z,14.50
2019-04-21T08:33:16.185Z,14.60
2019-04-21T08:36:03.308Z,14.90
2019-04-21T08:38:13.953Z,15.10
2019-04-21T08:40:45.732Z,15.00
2019-04-21T08:43:21.703Z,15.30
2019-04-21T08:45:46.823Z,15.30
2019-04-21T08:50:44.223Z,15.70
2019-04-21T08:53:14.444Z,15.70
2019-04-21T08:55:58.934Z,15.90
2019-04-21T08:58:34.113Z,16.10
2019-04-21T09:01:08.784Z,16.60
2019-04-21T09:06:57.221Z,16.90
2019-04-21T09:09:10.965Z,16.80
2019-04-21T09:11:40.509Z,16.30
2019-04-21T09:14:13.804Z,16.40
2019-04-21T09:16:40.730Z,16.70
2019-04-21T09:19:11.564Z,16.40
2019-04-21T09:21:46.930Z,16.30
2019-04-21T09:24:18.980Z,16.60
2019-04-21T09:26:43.202Z,17.10
2019-04-21T09:29:05.983Z,17.30
2019-04-21T09:31:32.229Z,17.50
2019-04-21T09:33:59.259Z,17.70
2019-04-21T09:36:35.050Z,17.60
2019-04-21T09:39:03.802Z,17.70
2019-04-21T09:41:27.868Z,17.50
2019-04-21T09:43:57.918Z,17.90
2019-04-21T09:46:51.915Z,18.10
2019-04-21T09:49:20.587Z,18.20
2019-04-21T09:51:45.960Z,18.50
2019-04-21T09:54:22.449Z,18.70
2019-04-21T09:56:52.341Z,18.90
2019-04-21T09:59:20.636Z,19.00
2019-04-21T10:01:54.982Z,19.00
2019-04-21T10:04:16.431Z,18.90
2019-04-21T10:06:45.331Z,18.90
2019-04-21T10:09:17.362Z,19.50
2019-04-21T10:11:44.078Z,19.80
2019-04-21T10:14:13.520Z,19.90
2019-04-21T10:19:21.077Z,19.90
2019-04-21T10:21:50.132Z,19.80
2019-04-21T10:24:18.638Z,19.80
2019-04-21T10:26:47.231Z,19.90
2019-04-21T10:29:22.747Z,20.10
2019-04-21T10:31:46.853Z,20.10
2019-04-21T10:34:17.028Z,20.50
2019-04-21T10:36:46.968Z,20.40
2019-04-21T10:39:15.768Z,20.70
2019-04-21T10:41:45.654Z,20.60
2019-04-21T10:44:14.281Z,21.60
2019-04-21T10:46:45.349Z,22.00
2019-04-21T10:49:20.416Z,21.80
2019-04-21T10:51:49.017Z,21.50
2019-04-21T10:54:17.893Z,24.20
2019-04-21T10:56:47.899Z,25.00
2019-04-21T10:59:16.646Z,23.20
2019-04-21T11:01:45.311Z,22.80
2019-04-21T11:04:27.258Z,23.40
2019-04-21T11:06:52.686Z,24.70
2019-04-21T11:09:22.045Z,26.10
2019-04-21T11:11:53.192Z,25.70
2019-04-21T11:14:21.082Z,24.70
2019-04-21T11:16:51.516Z,23.90
2019-04-21T11:19:20.118Z,24.10
2019-04-21T11:21:49.292Z,24.30
2019-04-21T11:24:18.193Z,24.70
2019-04-21T11:26:47.751Z,25.30
2019-04-21T11:29:17.057Z,24.90
2019-04-21T11:31:47.207Z,23.00
2019-04-21T11:34:15.500Z,24.70
2019-04-21T11:36:44.243Z,25.90
2019-04-21T11:39:25.638Z,27.10
2019-04-21T11:41:45.754Z,27.70
2019-04-21T11:44:14.439Z,27.20
2019-04-21T11:46:42.965Z,27.90
2019-04-21T11:49:12.593Z,27.50
2019-04-21T11:51:41.131Z,26.00
2019-04-21T11:54:10.736Z,25.60
2019-04-21T11:56:39.480Z,26.10
2019-04-21T11:59:08.200Z,25.70
2019-04-21T12:01:36.650Z,26.00
2019-04-21T12:04:05.861Z,25.90
2019-04-21T12:06:40.926Z,26.20
2019-04-21T12:09:06.951Z,25.90
2019-04-21T12:11:39.216Z,26.00
2019-04-21T12:14:08.051Z,26.20
2019-04-21T12:16:37.040Z,26.20
2019-04-21T12:19:07.062Z,25.90
2019-04-21T12:21:46.603Z,25.50
2019-04-21T12:24:06.925Z,25.10
2019-04-21T12:26:35.953Z,25.10
2019-04-21T12:29:06.015Z,25.60
2019-04-21T12:31:41.503Z,25.40
2019-04-21T12:34:12.057Z,25.30
2019-04-21T12:36:42.075Z,24.80
2019-04-21T12:39:12.835Z,24.90
2019-04-21T12:41:42.624Z,24.80
2019-04-21T12:44:11.208Z,24.50
2019-04-21T12:46:40.164Z,24.40
2019-04-21T12:49:09.782Z,24.30
2019-04-21T12:51:39.805Z,24.20
2019-04-21T12:54:09.735Z,24.00
2019-04-21T12:56:38.375Z,23.80
2019-04-21T12:59:07.882Z,23.60
2019-04-21T13:01:38.931Z,23.40
2019-04-21T13:04:08.166Z,23.70
2019-04-21T13:06:37.378Z,23.50
2019-04-21T13:09:10.768Z,23.60
2019-04-21T13:11:37.379Z,23.80
2019-04-21T13:14:06.206Z,23.90
2019-04-21T13:16:39.728Z,23.90
2019-04-21T13:19:09.328Z,23.60
2019-04-21T13:21:38.193Z,23.70
2019-04-21T13:24:07.181Z,23.70
2019-04-21T13:26:42.936Z,24.00
2019-04-21T13:29:06.219Z,23.60
2019-04-21T13:31:36.141Z,23.80
2019-04-21T13:34:04.376Z,23.90
2019-04-21T13:36:33.814Z,23.70
2019-04-21T13:39:33.027Z,23.80
2019-04-21T13:41:47.359Z,23.50
2019-04-21T13:44:15.705Z,23.50
2019-04-21T13:46:45.256Z,23.40
2019-04-21T13:49:14.437Z,23.80
2019-04-21T13:51:43.991Z,23.30
2019-04-21T13:54:13.928Z,23.40
2019-04-21T13:56:42.546Z,23.20
2019-04-21T13:59:11.182Z,22.90
2019-04-21T14:01:39.807Z,23.20
2019-04-21T14:04:09.394Z,23.10
2019-04-21T14:06:38.454Z,23.30
2019-04-21T14:09:09.848Z,23.50
2019-04-21T14:11:38.443Z,23.20
2019-04-21T14:14:08.262Z,23.30
2019-04-21T14:16:36.228Z,23.50
2019-04-21T14:19:05.615Z,23.30
2019-04-21T14:21:34.160Z,23.30
2019-04-21T14:24:02.628Z,23.70
2019-04-21T14:26:32.161Z,23.50
2019-04-21T14:29:01.574Z,23.60
2019-04-21T14:31:30.524Z,23.60
2019-04-21T14:33:59.705Z,23.70
2019-04-21T14:36:28.688Z,23.40
2019-04-21T14:38:58.606Z,23.40
2019-04-21T14:41:28.409Z,23.10
2019-04-21T14:43:56.920Z,23.70
2019-04-21T14:46:31.242Z,23.30
2019-04-21T14:49:17.553Z,23.20
2019-04-21T14:51:47.678Z,23.20
2019-04-21T14:54:33.245Z,22.80
2019-04-21T14:57:03.247Z,22.60
2019-04-21T14:59:33.277Z,22.70
2019-04-21T15:02:02.224Z,22.80
2019-04-21T15:04:31.587Z,22.70
2019-04-21T15:07:01.200Z,22.30
2019-04-21T15:09:31.388Z,22.30
2019-04-21T15:12:00.555Z,22.80
2019-04-21T15:14:29.809Z,22.80
2019-04-21T15:16:58.710Z,22.70
2019-04-21T15:19:28.664Z,22.80
2019-04-21T15:21:58.401Z,22.80
2019-04-21T15:24:27.150Z,22.80
2019-04-21T15:26:56.771Z,22.80
2019-04-21T15:29:26.662Z,22.80
2019-04-21T15:31:56.706Z,22.70
2019-04-21T15:34:27.226Z,22.60
2019-04-21T15:36:55.670Z,22.70
2019-04-21T15:39:25.646Z,22.60
2019-04-21T15:41:54.609Z,22.50
2019-04-21T15:44:23.107Z,22.40
2019-04-21T15:46:52.267Z,22.40
2019-04-21T15:49:23.077Z,22.10
2019-04-21T15:51:51.851Z,22.00
2019-04-21T15:54:20.644Z,21.70
2019-04-21T15:56:51.274Z,21.70
2019-04-21T15:59:36.879Z,21.40
2019-04-21T16:02:24.562Z,21.20
2019-04-21T16:04:53.182Z,21.10
2019-04-21T16:07:24.352Z,21.10
2019-04-21T16:09:54.257Z,21.10
2019-04-21T16:12:23.016Z,21.00
2019-04-21T16:14:52.513Z,20.90
2019-04-21T16:17:21.335Z,20.90
2019-04-21T16:19:49.982Z,20.60
2019-04-21T16:22:18.840Z,20.50
2019-04-21T16:24:47.745Z,20.40
2019-04-21T16:27:17.403Z,20.30
2019-04-21T16:29:46.054Z,20.20
2019-04-21T16:32:17.548Z,20.20
2019-04-21T16:34:50.741Z,20.10
2019-04-21T16:37:14.914Z,20.00
2019-04-21T16:39:43.420Z,19.80
2019-04-21T16:42:12.101Z,19.90
2019-04-21T16:44:41.019Z,19.80
2019-04-21T16:47:09.771Z,19.70
2019-04-21T16:49:38.362Z,19.70
2019-04-21T16:52:18.270Z,19.60
2019-04-21T16:57:33.588Z,19.50
2019-04-21T17:00:04.525Z,19.40
2019-04-21T17:02:34.459Z,19.30
2019-04-21T17:05:04.554Z,19.30
2019-04-21T17:07:33.224Z,19.20
2019-04-21T17:10:02.533Z,19.20
2019-04-21T17:12:31.143Z,19.10
2019-04-21T17:15:15.263Z,19.00
2019-04-21T17:17:49.755Z,19.00
2019-04-21T17:20:13.580Z,18.80
2019-04-21T17:22:31.527Z,18.70
2019-04-21T17:25:00.379Z,18.70
2019-04-21T17:27:29.215Z,18.70
2019-04-21T17:29:59.004Z,18.70
2019-04-21T17:32:34.337Z,18.70
2019-04-21T17:34:58.103Z,18.60
2019-04-21T17:37:29.200Z,18.50
2019-04-21T17:39:59.103Z,18.40
2019-04-21T17:42:38.641Z,18.40
2019-04-21T17:44:59.375Z,18.20
2019-04-21T17:47:41.507Z,18.20
2019-04-21T17:53:00.784Z,18.00
2019-04-21T17:55:36.934Z,17.90
2019-04-21T17:58:16.233Z,17.90
2019-04-21T18:01:10.796Z,17.70
2019-04-21T18:03:32.887Z,17.60
2019-04-21T18:05:50.266Z,17.50
2019-04-21T18:08:30.579Z,17.40
2019-04-21T18:10:50.688Z,17.40
2019-04-21T18:13:12.773Z,17.30
2019-04-21T18:15:53.530Z,17.10
2019-04-21T18:18:28.909Z,17.10
2019-04-21T18:20:59.072Z,17.00
2019-04-21T18:23:46.908Z,16.90
2019-04-21T18:26:23.562Z,16.90
2019-04-21T18:28:38.792Z,16.80
2019-04-21T18:31:10.181Z,16.70
2019-04-21T18:33:42.694Z,16.50
2019-04-21T18:36:19.918Z,16.40
2019-04-21T18:39:04.066Z,16.30
2019-04-21T18:44:48.541Z,16.10
2019-04-21T18:47:19.996Z,16.00
2019-04-21T18:49:26.997Z,15.90
2019-04-21T18:52:22.497Z,15.90
2019-04-21T18:55:00.268Z,15.80
2019-04-21T18:57:26.593Z,15.60
2019-04-21T18:59:47.640Z,15.60
2019-04-21T19:02:18.245Z,15.40
2019-04-21T19:04:46.419Z,15.40
2019-04-21T19:07:29.946Z,15.10
2019-04-21T19:10:18.457Z,15.00
2019-04-21T19:14:58.081Z,14.90
2019-04-21T19:20:11.760Z,14.90
2019-04-21T19:22:33.011Z,14.70
2019-04-21T19:25:23.882Z,14.70
2019-04-21T19:27:33.742Z,14.60
2019-04-21T19:32:37.474Z,14.40
2019-04-21T19:34:52.575Z,14.20
2019-04-21T19:37:22.522Z,13.90
2019-04-21T19:39:57.915Z,14.00
2019-04-21T19:42:30.912Z,14.00
2019-04-21T19:45:05.927Z,13.90
2019-04-21T19:47:42.327Z,13.80
2019-04-21T19:50:05.892Z,13.60
2019-04-21T19:52:30.539Z,13.60
2019-04-21T19:54:50.665Z,13.70
2019-04-21T19:57:19.108Z,13.60
2019-04-21T19:59:51.866Z,13.50
2019-04-21T20:02:18.641Z,13.30
2019-04-21T20:04:54.169Z,13.30
2019-04-21T20:07:33.188Z,13.10
2019-04-21T20:10:11.717Z,13.20
2019-04-21T20:12:42.670Z,13.30
2019-04-21T20:15:10.800Z,13.30
2019-04-21T20:17:36.586Z,13.30
2019-04-21T20:19:50.061Z,13.10
2019-04-21T20:22:18.901Z,13.20
2019-04-21T20:25:11.737Z,12.90
2019-04-21T20:27:49.502Z,12.60
2019-04-21T20:30:27.820Z,12.20
2019-04-21T20:33:13.687Z,12.00
2019-04-21T20:35:43.330Z,12.00
2019-04-21T20:37:55.079Z,11.90
2019-04-21T20:40:21.813Z,11.90
2019-04-21T20:42:58.842Z,11.80
2019-04-21T20:45:34.508Z,11.80
2019-04-21T20:47:48.990Z,11.70
2019-04-21T20:50:27.393Z,11.50
2019-04-21T20:53:01.661Z,11.70
2019-04-21T20:55:22.510Z,11.70
2019-04-21T20:57:55.419Z,11.50
2019-04-21T21:00:32.749Z,11.60
2019-04-21T21:03:07.735Z,11.30
2019-04-21T21:05:27.479Z,11.30
2019-04-21T21:08:08.731Z,11.10
2019-04-21T21:10:34.741Z,11.10
2019-04-21T21:13:14.762Z,11.30
2019-04-21T21:15:29.303Z,11.00
2019-04-21T21:20:35.705Z,10.70
2019-04-21T21:22:58.474Z,10.60
2019-04-21T21:25:41.923Z,10.50
2019-04-21T21:27:59.601Z,10.40
2019-04-21T21:30:32.350Z,10.40
2019-04-21T21:33:11.248Z,10.30
2019-04-21T21:35:30.380Z,10.20
2019-04-21T21:40:38.161Z,10.20
2019-04-21T21:42:51.152Z,10.20
2019-04-21T21:45:25.155Z,10.10
2019-04-21T21:48:06.931Z,10.00
2019-04-21T21:50:29.849Z,10.00
2019-04-21T21:53:00.547Z,10.00
2019-04-21T21:55:21.515Z,9.90
2019-04-21T21:57:55.375Z,9.80
2019-04-21T22:00:23.985Z,9.80
2019-04-21T22:02:56.562Z,9.80
2019-04-21T22:05:25.810Z,9.70
2019-04-21T22:07:54.342Z,9.70
2019-04-21T22:10:23.195Z,9.60
2019-04-21T22:13:01.022Z,9.60
2019-04-21T22:15:24.964Z,9.50
2019-04-21T22:18:15.039Z,9.40
2019-04-21T22:20:44.545Z,9.30
2019-04-21T22:22:59.654Z,9.20
2019-04-21T22:25:29.525Z,9.20
2019-04-21T22:27:53.843Z,9.30
2019-04-21T22:30:29.966Z,9.30
2019-04-21T22:32:59.880Z,9.30
2019-04-21T22:35:31.502Z,9.30
2019-04-21T22:38:10.649Z,9.20
2019-04-21T22:40:33.841Z,9.00
2019-04-21T22:43:04.864Z,9.00
2019-04-21T22:45:25.144Z,8.90
2019-04-21T22:47:58.736Z,8.90
2019-04-21T22:50:30.591Z,8.80
2019-04-21T22:53:04.002Z,8.70
2019-04-21T22:55:33.446Z,8.70
2019-04-21T22:58:01.542Z,8.80
2019-04-21T23:00:39.042Z,8.60
2019-04-21T23:03:09.553Z,8.50
2019-04-21T23:05:36.278Z,8.50
2019-04-21T23:08:04.800Z,8.50
2019-04-21T23:10:31.544Z,8.50
2019-04-21T23:13:07.159Z,8.40
2019-04-21T23:15:38.361Z,8.40
2019-04-21T23:18:23.058Z,8.40
2019-04-21T23:20:56.738Z,8.40
2019-04-21T23:23:22.159Z,8.40
2019-04-21T23:25:51.928Z,8.30
2019-04-21T23:28:14.790Z,8.30
2019-04-21T23:30:54.471Z,8.30
2019-04-21T23:33:08.207Z,8.20
2019-04-21T23:35:38.786Z,8.30
2019-04-21T23:38:06.758Z,8.20
2019-04-21T23:40:33.475Z,8.30
2019-04-21T23:43:09.591Z,8.30
2019-04-21T23:45:38.048Z,8.20
2019-04-21T23:48:18.583Z,8.10
2019-04-21T23:50:43.080Z,8.20
2019-04-21T23:53:03.598Z,8.10
2019-04-21T23:55:32.111Z,8.10
2019-04-21T23:58:09.447Z,8.00
